createdAt,value
2022-12-23T00:01:23.701Z,100.00
2022-12-23T00:03:51.075Z,100.00
2022-12-23T00:06:20.448Z,100.00
2022-12-23T00:08:47.897Z,100.00
2022-12-23T00:11:18.358Z,100.00
2022-12-23T00:14:04.335Z,100.00
2022-12-23T00:16:31.355Z,100.00
2022-12-23T00:18:58.198Z,100.00
2022-12-23T00:21:24.982Z,100.00
2022-12-23T00:23:52.404Z,100.00
2022-12-23T00:26:24.546Z,100.00
2022-12-23T00:28:52.281Z,100.00
2022-12-23T00:31:21.470Z,100.00
2022-12-23T00:33:51.711Z,100.00
2022-12-23T00:36:29.049Z,100.00
2022-12-23T00:39:16.281Z,100.00
2022-12-23T00:42:02.002Z,100.00
2022-12-23T00:44:29.340Z,100.00
2022-12-23T00:46:56.276Z,100.00
2022-12-23T00:49:41.555Z,100.00
2022-12-23T00:52:11.789Z,100.00
2022-12-23T00:54:39.260Z,100.00
2022-12-23T00:57:06.272Z,100.00
2022-12-23T00:59:33.844Z,100.00
2022-12-23T01:02:19.220Z,100.00
2022-12-23T01:05:05.023Z,100.00
2022-12-23T01:07:32.403Z,100.00
2022-12-23T01:09:59.098Z,100.00
2022-12-23T01:12:26.128Z,100.00
2022-12-23T01:14:53.048Z,100.00
2022-12-23T01:17:19.873Z,100.00
2022-12-23T01:19:46.686Z,100.00
2022-12-23T01:22:13.630Z,100.00
2022-12-23T01:24:40.494Z,100.00
2022-12-23T01:27:07.277Z,100.00
2022-12-23T01:29:34.226Z,100.00
2022-12-23T01:32:01.045Z,100.00
2022-12-23T01:34:34.275Z,100.00
2022-12-23T01:37:03.311Z,100.00
2022-12-23T01:39:30.102Z,100.00
2022-12-23T01:42:15.276Z,100.00
2022-12-23T01:44:55.619Z,100.00
2022-12-23T01:47:44.047Z,100.00
2022-12-23T01:50:20.179Z,100.00
2022-12-23T01:53:15.190Z,100.00
2022-12-23T01:55:59.410Z,100.00
2022-12-23T01:58:36.478Z,100.00
2022-12-23T02:01:22.493Z,100.00
2022-12-23T02:03:52.302Z,100.00
2022-12-23T02:06:42.871Z,100.00
2022-12-23T02:09:17.896Z,100.00
2022-12-23T02:12:11.488Z,100.00
2022-12-23T02:15:14.976Z,100.00
2022-12-23T02:17:44.657Z,100.00
2022-12-23T02:20:36.001Z,100.00
2022-12-23T02:23:52.532Z,100.00
2022-12-23T02:26:56.327Z,100.00
2022-12-23T02:29:25.882Z,100.00
2022-12-23T02:32:10.314Z,100.00
2022-12-23T02:35:13.975Z,100.00
2022-12-23T02:37:58.067Z,100.00
2022-12-23T02:40:33.197Z,100.00
2022-12-23T02:43:06.922Z,100.00
2022-12-23T02:45:40.636Z,100.00
2022-12-23T02:48:32.457Z,100.00
2022-12-23T02:51:00.946Z,100.00
2022-12-23T02:53:43.537Z,100.00
2022-12-23T02:56:13.147Z,100.00
2022-12-23T02:58:51.576Z,100.00
2022-12-23T03:01:19.815Z,100.00
2022-12-23T03:03:48.332Z,100.00
2022-12-23T03:06:40.913Z,100.00
2022-12-23T03:09:08.776Z,100.00
2022-12-23T03:11:54.023Z,100.00
2022-12-23T03:14:53.013Z,100.00
2022-12-23T03:17:42.153Z,100.00
2022-12-23T03:20:32.688Z,100.00
2022-12-23T03:23:08.939Z,100.00
2022-12-23T03:25:47.297Z,100.00
2022-12-23T03:28:23.070Z,100.00
2022-12-23T03:30:55.160Z,100.00
2022-12-23T03:33:41.285Z,100.00
2022-12-23T03:36:17.642Z,100.00
2022-12-23T03:38:45.601Z,100.00
2022-12-23T03:41:19.324Z,100.00
2022-12-23T03:43:53.438Z,100.00
2022-12-23T03:46:33.105Z,100.00
2022-12-23T03:49:19.766Z,100.00
2022-12-23T03:51:56.714Z,100.00
2022-12-23T03:54:40.183Z,100.00
2022-12-23T03:57:08.518Z,100.00
2022-12-23T03:59:39.516Z,100.00
2022-12-23T04:02:24.300Z,100.00
2022-12-23T04:04:56.993Z,100.00
2022-12-23T04:07:47.223Z,100.00
2022-12-23T04:10:14.708Z,100.00
2022-12-23T04:12:41.858Z,100.00
2022-12-23T04:15:13.152Z,100.00
2022-12-23T04:17:40.460Z,100.00
2022-12-23T04:20:08.268Z,100.00
2022-12-23T04:22:35.200Z,100.00
2022-12-23T04:25:03.145Z,100.00
2022-12-23T04:27:29.868Z,100.00
2022-12-23T04:29:56.714Z,100.00
2022-12-23T04:32:23.585Z,100.00
2022-12-23T04:34:50.637Z,100.00
2022-12-23T04:37:17.708Z,100.00
2022-12-23T04:39:44.490Z,100.00
2022-12-23T04:42:11.433Z,100.00
2022-12-23T04:44:38.120Z,100.00
2022-12-23T04:47:06.770Z,100.00
2022-12-23T04:49:39.450Z,100.00
2022-12-23T04:52:06.792Z,100.00
2022-12-23T04:54:33.605Z,100.00
2022-12-23T04:57:00.728Z,100.00
2022-12-23T04:59:27.976Z,100.00
2022-12-23T05:01:54.968Z,100.00
2022-12-23T05:04:22.081Z,100.00
2022-12-23T05:06:49.074Z,100.00
2022-12-23T05:09:16.057Z,100.00
2022-12-23T05:11:42.868Z,100.00
2022-12-23T05:14:12.983Z,100.00
2022-12-23T05:16:40.207Z,100.00
2022-12-23T05:19:07.003Z,100.00
2022-12-23T05:21:33.993Z,100.00
2022-12-23T05:24:01.103Z,100.00
2022-12-23T05:26:27.874Z,100.00
2022-12-23T05:28:55.369Z,100.00
2022-12-23T05:31:22.269Z,100.00
2022-12-23T05:33:49.322Z,100.00
2022-12-23T05:36:16.356Z,100.00
2022-12-23T05:38:43.356Z,100.00
2022-12-23T05:41:10.251Z,100.00
2022-12-23T05:43:37.345Z,100.00
2022-12-23T05:46:04.401Z,100.00
2022-12-23T05:48:31.415Z,100.00
2022-12-23T05:50:58.280Z,100.00
2022-12-23T05:53:25.349Z,100.00
2022-12-23T05:55:52.150Z,100.00
2022-12-23T05:58:18.924Z,100.00
2022-12-23T06:00:45.767Z,100.00
2022-12-23T06:03:12.909Z,100.00
2022-12-23T06:05:40.339Z,100.00
2022-12-23T06:08:07.137Z,100.00
2022-12-23T06:10:33.944Z,100.00
2022-12-23T06:13:00.672Z,100.00
2022-12-23T06:15:27.739Z,100.00
2022-12-23T06:17:56.128Z,100.00
2022-12-23T06:20:23.039Z,100.00
2022-12-23T06:22:50.185Z,100.00
2022-12-23T06:25:17.089Z,100.00
2022-12-23T06:27:43.990Z,100.00
2022-12-23T06:30:11.030Z,100.00
2022-12-23T06:32:38.988Z,100.00
2022-12-23T06:35:07.517Z,100.00
2022-12-23T06:37:35.392Z,100.00
2022-12-23T06:40:02.615Z,100.00
2022-12-23T06:42:29.679Z,100.00
2022-12-23T06:44:56.667Z,100.00
2022-12-23T06:47:23.542Z,100.00
2022-12-23T06:49:51.627Z,100.00
2022-12-23T06:52:18.615Z,100.00
2022-12-23T06:54:45.300Z,100.00
2022-12-23T06:57:12.036Z,100.00
2022-12-23T06:59:39.181Z,100.00
2022-12-23T07:02:06.928Z,100.00
2022-12-23T07:04:33.621Z,100.00
2022-12-23T07:07:00.377Z,100.00
2022-12-23T07:09:27.171Z,100.00
2022-12-23T07:11:53.880Z,100.00
2022-12-23T07:14:20.621Z,100.00
2022-12-23T07:16:47.334Z,100.00
2022-12-23T07:19:14.059Z,100.00
2022-12-23T07:21:41.051Z,100.00
2022-12-23T07:24:08.479Z,100.00
2022-12-23T07:26:35.275Z,100.00
2022-12-23T07:29:02.357Z,100.00
2022-12-23T07:31:29.589Z,100.00
2022-12-23T07:33:56.459Z,100.00
2022-12-23T07:36:23.135Z,100.00
2022-12-23T07:38:51.670Z,100.00
2022-12-23T07:41:18.684Z,100.00
2022-12-23T07:43:45.783Z,100.00
2022-12-23T07:46:12.960Z,100.00
2022-12-23T07:48:42.009Z,100.00
2022-12-23T07:51:09.014Z,100.00
2022-12-23T07:53:36.255Z,100.00
2022-12-23T07:56:03.495Z,100.00
2022-12-23T07:58:30.238Z,100.00
2022-12-23T08:01:02.535Z,100.00
2022-12-23T08:03:29.735Z,100.00
2022-12-23T08:06:02.218Z,100.00
2022-12-23T08:08:28.999Z,100.00
2022-12-23T08:11:05.340Z,100.00
2022-12-23T08:13:34.504Z,100.00
2022-12-23T08:16:02.684Z,100.00
2022-12-23T08:18:34.478Z,100.00
2022-12-23T08:21:04.205Z,100.00
2022-12-23T08:23:32.292Z,100.00
2022-12-23T08:26:00.528Z,100.00
2022-12-23T08:28:27.953Z,100.00
2022-12-23T08:30:55.169Z,100.00
2022-12-23T08:33:22.493Z,100.00
2022-12-23T08:35:49.251Z,100.00
2022-12-23T08:38:16.034Z,100.00
2022-12-23T08:40:43.249Z,99.65
2022-12-23T08:43:10.135Z,100.00
2022-12-23T08:45:38.660Z,100.00
2022-12-23T08:48:06.854Z,99.16
2022-12-23T08:50:45.060Z,97.63
2022-12-23T08:53:12.979Z,97.23
2022-12-23T08:55:42.351Z,93.47
2022-12-23T08:58:10.609Z,92.03
2022-12-23T09:00:38.198Z,91.14
2022-12-23T09:03:05.726Z,92.38
2022-12-23T09:05:33.689Z,92.96
2022-12-23T09:08:00.582Z,91.80
2022-12-23T09:10:27.483Z,91.65
2022-12-23T09:12:57.694Z,89.34
2022-12-23T09:15:24.760Z,87.94
2022-12-23T09:17:51.434Z,87.22
2022-12-23T09:20:18.062Z,87.49
2022-12-23T09:22:45.208Z,86.05
2022-12-23T09:25:11.943Z,84.95
2022-12-23T09:27:38.879Z,84.24
2022-12-23T09:30:06.114Z,83.39
2022-12-23T09:32:33.190Z,84.02
2022-12-23T09:34:59.909Z,83.08
2022-12-23T09:37:26.645Z,81.76
2022-12-23T09:39:53.711Z,79.93
2022-12-23T09:42:42.073Z,79.80
2022-12-23T09:45:11.518Z,78.73
2022-12-23T09:47:38.804Z,79.27
2022-12-23T09:50:33.536Z,75.50
2022-12-23T09:53:18.143Z,75.43
2022-12-23T09:56:02.330Z,73.97
2022-12-23T09:58:31.744Z,72.21
2022-12-23T10:01:32.945Z,72.53
2022-12-23T10:04:03.125Z,71.92
2022-12-23T10:06:32.248Z,71.18
2022-12-23T10:09:02.941Z,72.43
2022-12-23T10:11:34.616Z,71.65
2022-12-23T10:14:20.511Z,71.64
2022-12-23T10:16:58.099Z,70.93
2022-12-23T10:19:46.322Z,71.89
2022-12-23T10:22:38.685Z,71.35
2022-12-23T10:25:32.756Z,71.90
2022-12-23T10:27:59.453Z,70.82
2022-12-23T10:30:53.980Z,71.21
2022-12-23T10:33:24.377Z,71.38
2022-12-23T10:36:20.429Z,71.99
2022-12-23T10:39:08.696Z,72.28
2022-12-23T10:41:55.017Z,72.12
2022-12-23T10:44:42.335Z,72.50
2022-12-23T10:47:40.428Z,73.04
2022-12-23T10:50:34.741Z,73.34
2022-12-23T10:53:06.762Z,71.76
2022-12-23T10:55:35.907Z,72.87
2022-12-23T10:58:13.474Z,72.47
2022-12-23T11:00:43.731Z,72.72
2022-12-23T11:03:19.382Z,72.35
2022-12-23T11:05:49.949Z,72.81
2022-12-23T11:08:17.447Z,72.87
2022-12-23T11:10:45.111Z,72.71
2022-12-23T11:13:32.226Z,72.37
2022-12-23T11:16:13.269Z,73.15
2022-12-23T11:18:54.038Z,72.81
2022-12-23T11:21:21.252Z,74.29
2022-12-23T11:23:48.234Z,73.42
2022-12-23T11:26:19.895Z,73.48
2022-12-23T11:28:53.359Z,73.06
2022-12-23T11:31:28.280Z,73.45
2022-12-23T11:34:05.276Z,73.58
2022-12-23T11:36:34.556Z,72.24
2022-12-23T11:39:01.651Z,73.04
2022-12-23T11:41:33.928Z,72.54
2022-12-23T11:44:06.665Z,72.78
2022-12-23T11:46:34.817Z,73.27
2022-12-23T11:49:31.564Z,72.15
2022-12-23T11:52:11.219Z,72.33
2022-12-23T11:54:39.014Z,73.11
2022-12-23T11:57:17.086Z,72.49
2022-12-23T11:59:49.430Z,71.92
2022-12-23T12:02:39.733Z,72.06
2022-12-23T12:05:38.587Z,72.56
2022-12-23T12:08:15.215Z,72.78
2022-12-23T12:10:42.784Z,72.60
2022-12-23T12:13:26.088Z,73.04
2022-12-23T12:16:02.424Z,73.11
2022-12-23T12:18:29.623Z,74.89
2022-12-23T12:21:02.237Z,75.34
2022-12-23T12:23:43.532Z,76.01
2022-12-23T12:26:30.251Z,75.23
2022-12-23T12:29:06.936Z,75.47
2022-12-23T12:31:44.808Z,76.06
2022-12-23T12:34:14.537Z,75.79
2022-12-23T12:36:45.990Z,76.08
2022-12-23T12:39:31.312Z,75.43
2022-12-23T12:42:06.046Z,76.35
2022-12-23T12:45:00.313Z,75.82
2022-12-23T12:48:02.347Z,77.00
2022-12-23T12:50:33.409Z,78.28
2022-12-23T12:53:10.314Z,79.63
2022-12-23T12:55:42.595Z,80.23
2022-12-23T12:58:20.399Z,81.69
2022-12-23T13:01:05.785Z,80.50
2022-12-23T13:03:55.631Z,81.60
2022-12-23T13:06:56.509Z,80.79
2022-12-23T13:09:54.551Z,80.56
2022-12-23T13:12:36.600Z,80.89
2022-12-23T13:15:17.410Z,81.14
2022-12-23T13:18:06.618Z,81.54
2022-12-23T13:20:43.129Z,80.96
2022-12-23T13:23:42.273Z,81.32
2022-12-23T13:26:18.267Z,81.07
2022-12-23T13:28:53.759Z,81.38
2022-12-23T13:31:57.011Z,80.93
2022-12-23T13:34:50.259Z,82.30
2022-12-23T13:37:30.450Z,82.28
2022-12-23T13:40:25.402Z,81.98
2022-12-23T13:43:02.072Z,83.07
2022-12-23T13:45:36.595Z,83.20
2022-12-23T13:48:15.552Z,83.25
2022-12-23T13:50:54.957Z,83.43
2022-12-23T13:53:30.780Z,83.49
2022-12-23T13:56:19.019Z,84.27
2022-12-23T13:58:50.084Z,84.77
2022-12-23T14:01:17.999Z,85.31
2022-12-23T14:03:45.049Z,85.68
2022-12-23T14:06:40.836Z,86.37
2022-12-23T14:09:08.164Z,86.36
2022-12-23T14:11:34.977Z,87.70
2022-12-23T14:14:07.052Z,87.71
2022-12-23T14:16:59.176Z,88.57
2022-12-23T14:20:08.734Z,88.82
2022-12-23T14:23:06.112Z,89.33
2022-12-23T14:25:35.963Z,90.28
2022-12-23T14:28:29.237Z,90.02
2022-12-23T14:30:56.668Z,90.87
2022-12-23T14:33:25.135Z,91.15
2022-12-23T14:35:58.703Z,91.76
2022-12-23T14:38:28.622Z,92.51
2022-12-23T14:41:23.087Z,92.79
2022-12-23T14:43:56.125Z,92.23
2022-12-23T14:46:35.507Z,93.43
2022-12-23T14:49:36.836Z,93.73
2022-12-23T14:51:51.244Z,94.29
2022-12-23T14:54:55.273Z,95.58
2022-12-23T14:57:33.304Z,95.79
2022-12-23T15:00:04.422Z,96.14
2022-12-23T15:02:35.967Z,95.70
2022-12-23T15:05:03.071Z,97.10
2022-12-23T15:07:37.204Z,96.91
2022-12-23T15:10:06.186Z,97.56
2022-12-23T15:12:34.436Z,97.45
2022-12-23T15:15:07.460Z,98.19
2022-12-23T15:17:36.453Z,98.23
2022-12-23T15:20:24.409Z,97.80
2022-12-23T15:22:52.822Z,98.25
2022-12-23T15:25:27.673Z,98.64
2022-12-23T15:28:01.471Z,98.54
2022-12-23T15:30:34.687Z,99.43
2022-12-23T15:33:21.838Z,98.83
2022-12-23T15:35:54.480Z,99.82
2022-12-23T15:38:24.811Z,100.00
2022-12-23T15:41:06.408Z,100.00
2022-12-23T15:43:33.328Z,100.00
2022-12-23T15:46:15.972Z,100.00
2022-12-23T15:48:43.262Z,100.00
2022-12-23T15:51:49.557Z,100.00
2022-12-23T15:54:08.802Z,100.00
2022-12-23T15:56:38.954Z,100.00
2022-12-23T15:59:06.154Z,100.00
2022-12-23T16:01:42.225Z,100.00
2022-12-23T16:04:18.220Z,100.00
2022-12-23T16:06:50.603Z,100.00
2022-12-23T16:09:58.920Z,100.00
2022-12-23T16:15:29.297Z,100.00
2022-12-23T16:18:12.449Z,100.00
2022-12-23T16:20:43.809Z,100.00
2022-12-23T16:23:12.970Z,100.00
2022-12-23T16:25:44.112Z,100.00
2022-12-23T16:28:21.744Z,100.00
2022-12-23T16:30:52.770Z,100.00
2022-12-23T16:33:37.631Z,100.00
2022-12-23T16:36:26.631Z,100.00
2022-12-23T16:39:21.876Z,100.00
2022-12-23T16:41:50.209Z,100.00
2022-12-23T16:44:17.247Z,100.00
2022-12-23T16:46:47.488Z,100.00
2022-12-23T16:49:27.922Z,100.00
2022-12-23T16:51:56.706Z,100.00
2022-12-23T16:54:23.556Z,100.00
2022-12-23T16:56:50.772Z,100.00
2022-12-23T16:59:17.810Z,100.00
2022-12-23T17:01:49.504Z,100.00
2022-12-23T17:04:17.102Z,100.00
2022-12-23T17:06:46.874Z,100.00
2022-12-23T17:09:14.080Z,100.00
2022-12-23T17:11:47.524Z,100.00
2022-12-23T17:16:52.096Z,100.00
2022-12-23T17:19:27.218Z,100.00
2022-12-23T17:22:02.770Z,100.00
2022-12-23T17:24:30.679Z,100.00
2022-12-23T17:26:58.134Z,100.00
2022-12-23T17:29:25.135Z,100.00
2022-12-23T17:31:53.402Z,100.00
2022-12-23T17:34:22.783Z,100.00
2022-12-23T17:36:51.219Z,100.00
2022-12-23T17:39:24.243Z,100.00
2022-12-23T17:41:51.785Z,100.00
2022-12-23T17:44:19.356Z,100.00
2022-12-23T17:46:47.339Z,100.00
2022-12-23T17:49:17.505Z,100.00
2022-12-23T17:51:45.066Z,100.00
2022-12-23T17:54:33.713Z,100.00
2022-12-23T17:57:01.418Z,100.00
2022-12-23T17:59:31.893Z,100.00
2022-12-23T18:02:00.740Z,100.00
2022-12-23T18:04:28.351Z,100.00
2022-12-23T18:06:56.110Z,100.00
2022-12-23T18:09:23.724Z,100.00
2022-12-23T18:11:51.371Z,100.00
2022-12-23T18:14:28.315Z,100.00
2022-12-23T18:16:56.057Z,100.00
2022-12-23T18:19:23.762Z,100.00
2022-12-23T18:21:52.185Z,100.00
2022-12-23T18:24:19.909Z,100.00
2022-12-23T18:26:48.063Z,100.00
2022-12-23T18:29:16.243Z,100.00
2022-12-23T18:31:51.443Z,100.00
2022-12-23T18:34:20.390Z,100.00
2022-12-23T18:36:48.719Z,100.00
2022-12-23T18:39:22.248Z,100.00
2022-12-23T18:41:49.630Z,100.00
2022-12-23T18:44:21.779Z,100.00
2022-12-23T18:46:50.024Z,100.00
2022-12-23T18:49:26.528Z,100.00
2022-12-23T18:51:54.255Z,100.00
2022-12-23T18:54:25.439Z,100.00
2022-12-23T18:56:52.778Z,100.00
2022-12-23T18:59:29.336Z,100.00
2022-12-23T19:02:01.000Z,100.00
2022-12-23T19:04:28.864Z,100.00
2022-12-23T19:06:58.645Z,100.00
2022-12-23T19:09:27.151Z,100.00
2022-12-23T19:11:54.820Z,100.00
2022-12-23T19:14:25.244Z,100.00
2022-12-23T19:16:53.160Z,100.00
2022-12-23T19:19:22.400Z,100.00
2022-12-23T19:21:50.046Z,100.00
2022-12-23T19:24:20.819Z,100.00
2022-12-23T19:26:49.212Z,100.00
2022-12-23T19:29:16.960Z,100.00
2022-12-23T19:31:47.989Z,100.00
2022-12-23T19:34:16.166Z,100.00
2022-12-23T19:36:47.560Z,100.00
2022-12-23T19:39:17.391Z,100.00
2022-12-23T19:41:45.637Z,100.00
2022-12-23T19:44:13.796Z,100.00
2022-12-23T19:46:44.047Z,100.00
2022-12-23T19:49:17.763Z,100.00
2022-12-23T19:51:50.499Z,100.00
2022-12-23T19:54:19.375Z,100.00
2022-12-23T19:56:49.870Z,100.00
2022-12-23T19:59:21.940Z,100.00
2022-12-23T20:01:50.791Z,100.00
2022-12-23T20:04:19.157Z,100.00
2022-12-23T20:07:05.862Z,100.00
2022-12-23T20:09:33.931Z,100.00
2022-12-23T20:12:02.012Z,100.00
2022-12-23T20:14:33.795Z,100.00
2022-12-23T20:17:04.881Z,100.00
2022-12-23T20:19:33.132Z,100.00
2022-12-23T20:22:06.022Z,100.00
2022-12-23T20:24:37.020Z,100.00
2022-12-23T20:27:10.650Z,100.00
2022-12-23T20:29:39.247Z,100.00
2022-12-23T20:32:07.414Z,100.00
2022-12-23T20:34:39.589Z,100.00
2022-12-23T20:37:08.959Z,100.00
2022-12-23T20:39:42.825Z,100.00
2022-12-23T20:42:13.283Z,100.00
2022-12-23T20:44:41.935Z,100.00
2022-12-23T20:47:09.920Z,100.00
2022-12-23T20:49:37.173Z,100.00
2022-12-23T20:52:05.961Z,100.00
2022-12-23T20:54:34.150Z,100.00
2022-12-23T20:57:02.544Z,100.00
2022-12-23T20:59:30.548Z,100.00
2022-12-23T21:01:59.847Z,100.00
2022-12-23T21:04:27.661Z,100.00
2022-12-23T21:06:55.036Z,100.00
2022-12-23T21:09:22.446Z,100.00
2022-12-23T21:11:50.465Z,100.00
2022-12-23T21:14:17.840Z,100.00
2022-12-23T21:16:45.444Z,100.00
2022-12-23T21:19:19.473Z,100.00
2022-12-23T21:21:52.328Z,100.00
2022-12-23T21:24:21.915Z,100.00
2022-12-23T21:26:56.738Z,100.00
2022-12-23T21:29:25.434Z,100.00
2022-12-23T21:31:53.191Z,100.00
2022-12-23T21:34:20.954Z,100.00
2022-12-23T21:36:53.787Z,100.00
2022-12-23T21:39:21.215Z,100.00
2022-12-23T21:41:51.564Z,100.00
2022-12-23T21:44:19.264Z,100.00
2022-12-23T21:46:47.086Z,100.00
2022-12-23T21:49:14.551Z,100.00
2022-12-23T21:51:42.318Z,100.00
2022-12-23T21:54:13.116Z,100.00
2022-12-23T21:56:42.053Z,100.00
2022-12-23T21:59:13.336Z,100.00
2022-12-23T22:01:41.763Z,100.00
2022-12-23T22:04:09.550Z,100.00
2022-12-23T22:06:39.579Z,100.00
2022-12-23T22:09:08.582Z,100.00
2022-12-23T22:11:37.172Z,100.00
2022-12-23T22:14:07.318Z,100.00
2022-12-23T22:16:36.132Z,100.00
2022-12-23T22:19:05.647Z,100.00
2022-12-23T22:21:34.645Z,100.00
2022-12-23T22:24:03.398Z,100.00
2022-12-23T22:26:32.886Z,100.00
2022-12-23T22:29:02.913Z,100.00
2022-12-23T22:31:52.080Z,100.00
2022-12-23T22:34:21.303Z,100.00
2022-12-23T22:36:49.778Z,100.00
2022-12-23T22:39:21.431Z,100.00
2022-12-23T22:41:51.256Z,100.00
2022-12-23T22:44:19.276Z,100.00
2022-12-23T22:46:47.120Z,100.00
2022-12-23T22:49:16.716Z,100.00
2022-12-23T22:51:45.519Z,100.00
2022-12-23T22:54:13.771Z,100.00
2022-12-23T22:56:44.412Z,100.00
2022-12-23T22:59:23.212Z,100.00
2022-12-23T23:01:51.899Z,100.00
2022-12-23T23:04:20.002Z,100.00
2022-12-23T23:06:48.007Z,100.00
2022-12-23T23:09:17.005Z,100.00
2022-12-23T23:11:48.549Z,100.00
2022-12-23T23:14:20.530Z,100.00
2022-12-23T23:16:48.494Z,100.00
2022-12-23T23:19:22.444Z,100.00
2022-12-23T23:21:50.331Z,100.00
2022-12-23T23:24:24.105Z,100.00
2022-12-23T23:26:56.192Z,100.00
2022-12-23T23:29:33.190Z,100.00
2022-12-23T23:32:01.200Z,100.00
2022-12-23T23:34:31.895Z,100.00
2022-12-23T23:37:02.487Z,100.00
2022-12-23T23:39:30.108Z,100.00
2022-12-23T23:41:57.434Z,100.00
2022-12-23T23:44:24.665Z,100.00
2022-12-23T23:46:52.599Z,100.00
2022-12-23T23:49:21.750Z,100.00
2022-12-23T23:51:50.405Z,100.00
2022-12-23T23:54:23.134Z,100.00
2022-12-23T23:56:51.323Z,100.00
2022-12-23T23:59:18.854Z,100.00
